Etusivu
METAR-TAF:

METAR-TAF

Lentoasemat :

Yuma, Arizona, Yhdysvallat

Leveyspiiri: 32-37-25N, Pituuspiiri: 113-45-50W, korkeus merenpinnasta: 64 m

Tämänhetkinen sää

Tämä raportti tehtiin 1 tunti ja 7 minuuttia sitten, kello 15.57 UTC
Tuuli 10 kn luoteesta
Lämpötila 14°C
Kosteus 18%
Ilmanpaine 1022 hPa
Näkyvyys: 16.1 km
selkeää

METAR: KNYL 271557Z AUTO 31010KT 10SM CLR 14/M10 A3019 RMK AO2 SLP221 T01391100 $

Aika: 10:04 (17:04 UTC)

Sääennuste

Ennuste voimassa 27. päivästä klo 15 UTC - 28. päivään klo 15 UTC
Tuuli 17 kn pohjoisesta puuskistuen 25 kn:hen
Näkyvyys 10 km tai enemmän
selkeää
Tulossa
28. päivästä klo 01 UTC - 28. päivään klo 03 UTC
Tuuli 6 kn pohjoisesta
Näkyvyys: 2815 m
selkeää

TAF: KNYL 2715/2815 35017G25KT 9999 SKC QNH3010INS BECMG 2801/2803 01006KT 9999 SKC QNH3012INS T20/2800Z T01/2815Z LAST NO AMD AFT 2715/ NEXT 2815

Säähavainnot ja -ennusteet yli 4000 lentoasemalta (METAR- ja TAF-raportit).

Käytössä olevat sääasemat on merkitty karttaan keltaisilla ja punaisilla pisteillä.

Aseta hiiri pisteen päälle nähdäksesi sääaseman nimen.

Klikkaa sitten nähdäksesi säähavainnot ja -ennusteet.

Kartan vaihtaminen: klikkaa mustalla rastilla varustettuja vihreitä pisteitä, niin voit zoomata sisään; viivalla varustettua vihreää pistettä, niin voit zoomata ulos tai vihreitä nuolia, niin pääset viereisille kartoille.


METAR-TAF: